Time;durP1;ratioP1;P1;durP2;ratioP2;P2;SDS_P1;SDS_P2;PMS_P1;PMS_P2;Temp;Humidity;BMP_temperature;BMP_pressure;BME280_temperature;BME280_humidity;BME280_pressure;Samples;Min_cycle;Max_cycle;Signal;HPM_P1;HPM_P2
2021/04/18 05:38:11;;;;;;;20.00;15.10;;;;;;;;;;1155237;27;20064;-70
2021/04/18 05:40:37;;;;;;;21.10;14.57;;;;;;;;;;4897869;29;20031;-73
2021/04/18 05:43:03;;;;;;;19.42;14.80;;;;;;;;;;4914110;29;20032;-80
2021/04/18 05:45:29;;;;;;;20.52;15.50;;;;;;;;;;4913829;29;20459;-83
2021/04/18 05:47:56;;;;;;;20.75;15.50;;;;;;;;;;4914534;29;20036;-85
2021/04/18 05:50:22;;;;;;;22.60;16.48;;;;;;;;;;4914454;29;20156;-77
2021/04/18 05:52:48;;;;;;;21.27;16.05;;;;;;;;;;4914261;29;20036;-78
2021/04/18 05:55:15;;;;;;;19.77;15.25;;;;;;;;;;4914404;29;20043;-84
2021/04/18 05:57:41;;;;;;;21.48;16.13;;;;;;;;;;4914921;29;20119;-86
2021/04/18 06:00:07;;;;;;;20.75;16.33;;;;;;;;;;4914437;29;20166;-81
2021/04/18 06:02:34;;;;;;;19.25;15.50;;;;;;;;;;4914159;29;20024;-76
2021/04/18 06:05:00;;;;;;;18.15;14.55;;;;;;;;;;4913596;29;20070;-68
2021/04/18 06:07:26;;;;;;;20.40;14.43;;;;;;;;;;4913896;29;20064;-76
2021/04/18 06:09:52;;;;;;;13.05;10.38;;;;;;;;;;4913982;29;20028;-73
2021/04/18 06:12:18;;;;;;;11.80;9.77;;;;;;;;;;4914260;29;20123;-76
2021/04/18 06:14:45;;;;;;;11.25;9.48;;;;;;;;;;4913406;29;20380;-71
2021/04/18 06:17:11;;;;;;;10.38;9.10;;;;;;;;;;4914130;29;20060;-69
2021/04/18 06:19:37;;;;;;;10.23;8.20;;;;;;;;;;4913847;29;20091;-76
2021/04/18 06:22:03;;;;;;;12.02;9.05;;;;;;;;;;4913851;29;20067;-73
2021/04/18 06:24:32;;;;;;;11.23;9.05;;;;;;;;;;4914234;29;20056;-80
2021/04/18 06:26:58;;;;;;;11.40;8.88;;;;;;;;;;4913277;29;20356;-81
2021/04/18 06:29:24;;;;;;;10.57;8.52;;;;;;;;;;4914070;29;20032;-75
2021/04/18 06:31:50;;;;;;;11.68;8.13;;;;;;;;;;4914373;29;20452;-86
2021/04/18 06:34:21;;;;;;;19.70;10.30;;;;;;;;;;4914408;29;20039;-68
2021/04/18 06:36:47;;;;;;;21.80;11.68;;;;;;;;;;4913262;29;20091;-86
2021/04/18 06:39:13;;;;;;;12.98;9.93;;;;;;;;;;4914284;29;20052;-87
2021/04/18 06:41:39;;;;;;;10.73;8.93;;;;;;;;;;4914100;29;20527;-82
2021/04/18 06:44:06;;;;;;;12.32;9.88;;;;;;;;;;4914737;29;20036;-85
2021/04/18 06:46:33;;;;;;;11.32;8.55;;;;;;;;;;4914296;29;20050;-68
2021/04/18 06:48:59;;;;;;;11.45;9.13;;;;;;;;;;4912430;29;20123;-76
2021/04/18 06:51:25;;;;;;;11.00;8.90;;;;;;;;;;4913653;29;20518;-68
2021/04/18 06:53:52;;;;;;;11.77;8.63;;;;;;;;;;4913418;29;20040;-67
2021/04/18 06:56:18;;;;;;;11.48;9.23;;;;;;;;;;4913427;29;20028;-70
2021/04/18 06:58:44;;;;;;;10.90;8.68;;;;;;;;;;4913531;29;20036;-68
2021/04/18 07:01:10;;;;;;;10.63;8.60;;;;;;;;;;4913423;29;20080;-71
2021/04/18 07:03:38;;;;;;;11.05;8.98;;;;;;;;;;4911786;29;20418;-73
2021/04/18 07:06:04;;;;;;;10.18;8.45;;;;;;;;;;4910427;29;20035;-72
2021/04/18 07:08:38;;;;;;;10.48;8.38;;;;;;;;;;4930925;29;20031;-74
2021/04/18 07:11:14;;;;;;;10.15;8.57;;;;;;;;;;4912501;29;20064;-72
2021/04/18 07:13:44;;;;;;;12.15;9.13;;;;;;;;;;4932535;29;20036;-74
2021/04/18 07:16:27;;;;;;;11.48;9.38;;;;;;;;;;4931628;29;20480;-74
2021/04/18 07:18:57;;;;;;;10.82;9.15;;;;;;;;;;4932488;29;20036;-71
2021/04/18 07:21:46;;;;;;;14.20;9.40;;;;;;;;;;4932479;29;20028;-74
2021/04/18 07:24:12;;;;;;;11.93;9.77;;;;;;;;;;4872740;29;20045;-74
2021/04/18 07:26:38;;;;;;;12.70;10.20;;;;;;;;;;4855473;29;20049;-77
2021/04/18 07:29:14;;;;;;;13.52;9.65;;;;;;;;;;4860909;29;20537;-79
2021/04/18 07:31:42;;;;;;;12.30;9.18;;;;;;;;;;4859192;29;20045;-77
2021/04/18 07:34:15;;;;;;;12.10;9.52;;;;;;;;;;4876406;29;20093;-73
2021/04/18 07:36:42;;;;;;;10.43;9.32;;;;;;;;;;4875524;29;20033;-71
2021/04/18 07:39:09;;;;;;;13.35;8.90;;;;;;;;;;4875491;29;20470;-69
2021/04/18 07:41:41;;;;;;;10.82;8.80;;;;;;;;;;4876228;29;20037;-71
2021/04/18 07:44:08;;;;;;;10.38;9.10;;;;;;;;;;4874767;29;20021;-68
2021/04/18 07:46:36;;;;;;;12.35;9.40;;;;;;;;;;4872312;29;20037;-73
2021/04/18 07:49:03;;;;;;;11.40;9.85;;;;;;;;;;4858925;29;20037;-72
2021/04/18 07:51:31;;;;;;;12.48;9.70;;;;;;;;;;4874810;29;20052;-68
2021/04/18 07:53:57;;;;;;;11.88;9.80;;;;;;;;;;4874795;29;20072;-69
2021/04/18 07:56:23;;;;;;;13.30;10.00;;;;;;;;;;4873868;29;20124;-70
2021/04/18 07:58:49;;;;;;;13.20;10.20;;;;;;;;;;4873164;29;20029;-70
2021/04/18 08:01:16;;;;;;;12.10;10.20;;;;;;;;;;4899635;29;20067;-71
2021/04/18 08:03:43;;;;;;;13.05;10.73;;;;;;;;;;4933800;29;20031;-69
2021/04/18 08:06:09;;;;;;;14.07;11.10;;;;;;;;;;4930529;29;20038;-70
2021/04/18 08:08:47;;;;;;;15.73;12.00;;;;;;;;;;4932209;29;20095;-73
2021/04/18 08:11:14;;;;;;;14.18;11.60;;;;;;;;;;4930269;29;20035;-73
2021/04/18 08:13:43;;;;;;;14.18;11.15;;;;;;;;;;4924208;29;20511;-68
2021/04/18 08:16:09;;;;;;;16.80;12.43;;;;;;;;;;4914921;29;20032;-69
2021/04/18 08:18:37;;;;;;;17.20;13.50;;;;;;;;;;4898374;29;20059;-68
2021/04/18 08:21:04;;;;;;;19.48;14.10;;;;;;;;;;4914471;29;20024;-66
2021/04/18 08:23:40;;;;;;;20.55;15.32;;;;;;;;;;4915125;29;20028;-65
2021/04/18 08:26:15;;;;;;;19.85;15.30;;;;;;;;;;4915189;29;20036;-68
2021/04/18 08:31:20;;;;;;;20.20;15.23;;;;;;;;;;4910048;29;20044;-65
2021/04/18 08:33:47;;;;;;;21.40;16.33;;;;;;;;;;4915285;29;20040;-69
2021/04/18 08:36:17;;;;;;;20.88;15.65;;;;;;;;;;4914837;29;20035;-69
2021/04/18 08:38:44;;;;;;;20.42;15.00;;;;;;;;;;4914591;29;20052;-68
2021/04/18 08:41:15;;;;;;;16.90;13.85;;;;;;;;;;4915256;29;20028;-70
2021/04/18 08:43:44;;;;;;;16.92;12.40;;;;;;;;;;4914625;29;20030;-70
2021/04/18 08:46:10;;;;;;;15.52;12.55;;;;;;;;;;4914885;29;20115;-69
2021/04/18 08:48:37;;;;;;;16.23;12.88;;;;;;;;;;4913996;29;20075;-65
2021/04/18 08:51:04;;;;;;;16.17;12.77;;;;;;;;;;4914144;29;20028;-64
2021/04/18 08:53:50;;;;;;;17.67;13.05;;;;;;;;;;4914971;29;20107;-68
2021/04/18 08:56:16;;;;;;;17.17;13.30;;;;;;;;;;4914694;29;20059;-68
2021/04/18 08:58:42;;;;;;;18.75;14.63;;;;;;;;;;4913761;29;20032;-68
2021/04/18 09:01:12;;;;;;;16.23;13.43;;;;;;;;;;4914681;29;20034;-65
2021/04/18 09:03:39;;;;;;;20.77;16.45;;;;;;;;;;4914110;29;20512;-64
2021/04/18 09:06:24;;;;;;;18.38;14.90;;;;;;;;;;4914358;29;20032;-70
2021/04/18 09:08:54;;;;;;;17.52;14.18;;;;;;;;;;4908000;29;20092;-65
2021/04/18 09:11:20;;;;;;;21.50;14.85;;;;;;;;;;4914103;29;20024;-70
2021/04/18 09:16:32;;;;;;;22.30;15.20;;;;;;;;;;4820667;27;20070;-71
2021/04/18 09:19:17;;;;;;;21.50;15.05;;;;;;;;;;4914282;29;20047;-71
2021/04/18 09:21:51;;;;;;;20.65;14.05;;;;;;;;;;4913467;29;20047;-67
2021/04/18 09:24:17;;;;;;;23.42;16.88;;;;;;;;;;4913702;29;20036;-72
2021/04/18 09:27:03;;;;;;;21.63;14.90;;;;;;;;;;4913802;29;20032;-71
2021/04/18 09:29:29;;;;;;;18.58;14.07;;;;;;;;;;4913300;29;20031;-68
2021/04/18 09:31:55;;;;;;;19.48;14.07;;;;;;;;;;4913824;29;20044;-68
2021/04/18 09:34:21;;;;;;;19.08;13.65;;;;;;;;;;4913835;29;20020;-70
2021/04/18 09:36:49;;;;;;;16.92;12.90;;;;;;;;;;4913228;29;20032;-70
2021/04/18 09:39:15;;;;;;;17.08;13.13;;;;;;;;;;4914175;29;20024;-72
2021/04/18 09:41:42;;;;;;;17.33;13.10;;;;;;;;;;4913796;29;20071;-67
2021/04/18 09:44:25;;;;;;;16.00;11.60;;;;;;;;;;4913222;29;20232;-67
2021/04/18 09:46:51;;;;;;;15.05;11.45;;;;;;;;;;4913338;29;20079;-69
2021/04/18 09:49:17;;;;;;;15.35;11.27;;;;;;;;;;4913552;29;20032;-72
2021/04/18 09:51:53;;;;;;;15.95;11.43;;;;;;;;;;4912946;29;20032;-69
2021/04/18 09:54:26;;;;;;;15.02;11.65;;;;;;;;;;4913485;29;20563;-74
2021/04/18 09:57:11;;;;;;;15.40;12.43;;;;;;;;;;4913527;29;20036;-68
2021/04/18 09:59:38;;;;;;;15.05;11.77;;;;;;;;;;4913458;29;20032;-67
2021/04/18 10:02:16;;;;;;;17.27;12.70;;;;;;;;;;4919637;29;20037;-66
2021/04/18 10:04:43;;;;;;;16.85;12.75;;;;;;;;;;4931783;29;20467;-66
2021/04/18 10:07:26;;;;;;;14.52;11.10;;;;;;;;;;4929625;29;20036;-70
2021/04/18 10:09:53;;;;;;;16.45;11.68;;;;;;;;;;4924258;29;20115;-67
2021/04/18 10:12:19;;;;;;;13.45;10.93;;;;;;;;;;4929726;29;20534;-69
2021/04/18 10:14:46;;;;;;;12.82;10.10;;;;;;;;;;4929408;29;20051;-68
2021/04/18 10:17:12;;;;;;;13.82;10.90;;;;;;;;;;4931536;29;20110;-68
2021/04/18 10:19:51;;;;;;;12.27;9.60;;;;;;;;;;4931816;29;20412;-67
2021/04/18 10:22:17;;;;;;;14.50;11.05;;;;;;;;;;4931707;29;20035;-68
2021/04/18 10:24:49;;;;;;;19.70;11.15;;;;;;;;;;4931860;29;20031;-67
2021/04/18 10:27:16;;;;;;;18.52;14.63;;;;;;;;;;4931335;29;20071;-68
2021/04/18 10:29:43;;;;;;;15.05;11.38;;;;;;;;;;4914816;29;20135;-68
2021/04/18 10:32:10;;;;;;;14.77;11.48;;;;;;;;;;4928481;29;20043;-68
2021/04/18 10:34:36;;;;;;;15.48;11.63;;;;;;;;;;4920760;29;20302;-68
2021/04/18 10:37:03;;;;;;;17.50;12.90;;;;;;;;;;4914131;29;20035;-67
2021/04/18 10:39:29;;;;;;;17.05;12.15;;;;;;;;;;4932081;29;20019;-67
2021/04/18 10:41:55;;;;;;;16.25;12.73;;;;;;;;;;4932643;29;20040;-68
2021/04/18 10:44:22;;;;;;;20.42;14.63;;;;;;;;;;4931908;29;20060;-68
2021/04/18 10:46:52;;;;;;;17.58;12.80;;;;;;;;;;4932257;29;20034;-67
2021/04/18 10:49:19;;;;;;;19.23;13.50;;;;;;;;;;4931561;29;20381;-67
2021/04/18 10:51:46;;;;;;;15.70;12.60;;;;;;;;;;4931716;29;20401;-68
2021/04/18 10:54:12;;;;;;;19.90;14.25;;;;;;;;;;4930503;29;20043;-66
2021/04/18 10:56:40;;;;;;;18.73;14.65;;;;;;;;;;4931730;29;20132;-66
2021/04/18 10:59:06;;;;;;;19.50;14.50;;;;;;;;;;4931224;29;20031;-68
2021/04/18 11:01:32;;;;;;;20.15;15.02;;;;;;;;;;4932710;29;20027;-69
2021/04/18 11:03:58;;;;;;;19.83;15.52;;;;;;;;;;4932972;29;20087;-65
2021/04/18 11:06:24;;;;;;;24.95;16.20;;;;;;;;;;4916742;29;20028;-66
2021/04/18 11:08:50;;;;;;;19.92;15.13;;;;;;;;;;4935766;29;20475;-65
2021/04/18 11:11:16;;;;;;;19.80;14.35;;;;;;;;;;4918510;29;20440;-66
2021/04/18 11:13:42;;;;;;;19.80;14.63;;;;;;;;;;4935430;29;20031;-68
2021/04/18 11:16:08;;;;;;;18.98;14.57;;;;;;;;;;4935218;29;20058;-64
2021/04/18 11:18:35;;;;;;;21.77;15.85;;;;;;;;;;4935791;29;20066;-64
2021/04/18 11:21:01;;;;;;;21.08;16.38;;;;;;;;;;4918182;29;20412;-65
2021/04/18 11:23:27;;;;;;;23.77;17.40;;;;;;;;;;4935612;29;20020;-65
2021/04/18 11:25:53;;;;;;;23.73;17.75;;;;;;;;;;4935595;29;20476;-66
2021/04/18 11:28:19;;;;;;;21.92;16.67;;;;;;;;;;4934970;29;20032;-65
2021/04/18 11:30:46;;;;;;;19.48;15.02;;;;;;;;;;4935390;29;20024;-66
2021/04/18 11:33:12;;;;;;;22.38;16.60;;;;;;;;;;4935070;29;20063;-66
2021/04/18 11:35:38;;;;;;;18.92;14.82;;;;;;;;;;4934418;29;20096;-65
2021/04/18 11:38:04;;;;;;;22.38;15.38;;;;;;;;;;4917694;29;20552;-66
2021/04/18 11:40:31;;;;;;;27.48;20.40;;;;;;;;;;4934829;29;20110;-67
2021/04/18 11:42:57;;;;;;;22.00;16.40;;;;;;;;;;4934837;29;20090;-65
2021/04/18 11:45:23;;;;;;;17.65;12.75;;;;;;;;;;4934450;29;20038;-67
2021/04/18 11:47:49;;;;;;;16.73;13.13;;;;;;;;;;4917234;29;20416;-67
2021/04/18 11:50:16;;;;;;;15.95;12.50;;;;;;;;;;4931718;29;20488;-68
2021/04/18 11:52:42;;;;;;;15.73;11.98;;;;;;;;;;4911792;29;20047;-68
2021/04/18 11:55:10;;;;;;;14.48;12.07;;;;;;;;;;4916758;29;20118;-66
2021/04/18 11:57:36;;;;;;;17.13;11.98;;;;;;;;;;4933795;29;20670;-68
2021/04/18 12:00:04;;;;;;;16.85;12.80;;;;;;;;;;4934342;29;20032;-67
2021/04/18 12:02:30;;;;;;;18.10;13.15;;;;;;;;;;4934355;29;20023;-68
2021/04/18 12:04:56;;;;;;;14.50;11.70;;;;;;;;;;4934205;29;20024;-65
2021/04/18 12:07:22;;;;;;;18.27;13.50;;;;;;;;;;4934087;29;20023;-68
2021/04/18 12:09:48;;;;;;;17.63;14.02;;;;;;;;;;4933841;29;20032;-68
2021/04/18 12:12:14;;;;;;;23.23;16.73;;;;;;;;;;4934126;29;20020;-69
2021/04/18 12:14:40;;;;;;;23.10;17.35;;;;;;;;;;4932935;29;20040;-67
2021/04/18 12:17:06;;;;;;;25.23;19.05;;;;;;;;;;4934000;29;20464;-68
2021/04/18 12:19:32;;;;;;;27.38;19.38;;;;;;;;;;4934431;29;20590;-67
2021/04/18 12:21:58;;;;;;;24.98;17.52;;;;;;;;;;4933903;29;20114;-65
2021/04/18 12:24:24;;;;;;;24.02;16.95;;;;;;;;;;4934317;29;20362;-69
2021/04/18 12:26:51;;;;;;;23.52;17.02;;;;;;;;;;4933855;29;20032;-69
2021/04/18 12:29:17;;;;;;;23.23;16.67;;;;;;;;;;4934290;29;20180;-68
2021/04/18 12:31:43;;;;;;;21.83;16.55;;;;;;;;;;4933554;29;20035;-66
2021/04/18 12:34:09;;;;;;;27.73;19.73;;;;;;;;;;4925211;29;20174;-68
2021/04/18 12:36:36;;;;;;;25.63;19.88;;;;;;;;;;4913193;29;20489;-65
2021/04/18 12:39:03;;;;;;;24.02;17.63;;;;;;;;;;4914322;29;20511;-69
2021/04/18 12:41:29;;;;;;;24.63;18.63;;;;;;;;;;4912889;29;20106;-69
2021/04/18 12:43:55;;;;;;;28.60;20.35;;;;;;;;;;4914924;29;20039;-66
2021/04/18 12:46:22;;;;;;;29.05;18.98;;;;;;;;;;4898048;29;20500;-66
2021/04/18 12:48:48;;;;;;;27.38;18.90;;;;;;;;;;4914735;29;20040;-66
2021/04/18 12:51:14;;;;;;;23.75;18.30;;;;;;;;;;4915203;29;20036;-70
2021/04/18 12:53:41;;;;;;;21.02;15.35;;;;;;;;;;4915025;29;20803;-70
2021/04/18 12:56:07;;;;;;;19.42;14.85;;;;;;;;;;4932089;29;20042;-69
2021/04/18 12:58:33;;;;;;;19.58;15.68;;;;;;;;;;4928187;29;20060;-67
2021/04/18 13:00:59;;;;;;;18.42;13.73;;;;;;;;;;4913408;29;20044;-66
2021/04/18 13:03:25;;;;;;;15.93;12.70;;;;;;;;;;4914999;29;20357;-68
2021/04/18 13:05:52;;;;;;;13.40;10.43;;;;;;;;;;4896674;29;20040;-70
2021/04/18 13:08:18;;;;;;;11.80;9.73;;;;;;;;;;4914040;29;20044;-78
2021/04/18 13:10:44;;;;;;;11.98;10.07;;;;;;;;;;4914748;29;20032;-69
2021/04/18 13:13:13;;;;;;;12.70;10.70;;;;;;;;;;4897606;29;20051;-67
2021/04/18 13:15:40;;;;;;;12.23;9.88;;;;;;;;;;4913514;29;20452;-67
2021/04/18 13:18:06;;;;;;;13.85;11.20;;;;;;;;;;4913920;29;20020;-67
2021/04/18 13:20:33;;;;;;;12.55;10.98;;;;;;;;;;4913060;29;20030;-65
2021/04/18 13:22:59;;;;;;;14.77;10.43;;;;;;;;;;4903360;29;20039;-66
2021/04/18 13:25:25;;;;;;;13.35;10.77;;;;;;;;;;4927954;29;20387;-69
2021/04/18 13:27:51;;;;;;;11.75;10.27;;;;;;;;;;4931124;29;20028;-66
2021/04/18 13:30:17;;;;;;;14.57;10.98;;;;;;;;;;4932504;29;20027;-69
2021/04/18 13:32:44;;;;;;;12.68;10.43;;;;;;;;;;4915102;29;20040;-70
2021/04/18 13:35:11;;;;;;;13.38;10.80;;;;;;;;;;4899737;29;20036;-66
2021/04/18 13:37:40;;;;;;;13.27;10.43;;;;;;;;;;4908025;29;20036;-67
2021/04/18 13:40:07;;;;;;;13.07;10.55;;;;;;;;;;4912783;29;20052;-69
2021/04/18 13:42:33;;;;;;;13.48;10.80;;;;;;;;;;4896612;29;20480;-69
2021/04/18 13:44:59;;;;;;;11.73;10.18;;;;;;;;;;4913963;29;20091;-65
2021/04/18 13:47:25;;;;;;;12.98;10.60;;;;;;;;;;4914157;29;20032;-68
2021/04/18 13:49:52;;;;;;;12.30;10.05;;;;;;;;;;4913316;29;20436;-66
2021/04/18 13:52:19;;;;;;;14.02;9.35;;;;;;;;;;4924770;29;20051;-66
2021/04/18 13:54:45;;;;;;;14.48;10.10;;;;;;;;;;4928652;29;20135;-67
2021/04/18 13:57:11;;;;;;;15.07;11.05;;;;;;;;;;4932207;29;20030;-68
2021/04/18 13:59:37;;;;;;;17.80;12.10;;;;;;;;;;4914580;29;20096;-71
2021/04/18 14:02:03;;;;;;;17.92;12.50;;;;;;;;;;4931477;29;20028;-69
2021/04/18 14:04:29;;;;;;;18.08;13.02;;;;;;;;;;4914628;29;20028;-69
2021/04/18 14:06:56;;;;;;;20.98;15.10;;;;;;;;;;4915059;29;20051;-67
2021/04/18 14:09:22;;;;;;;20.40;15.88;;;;;;;;;;4931223;29;20075;-67
2021/04/18 14:11:48;;;;;;;22.13;16.13;;;;;;;;;;4905767;29;20047;-65
2021/04/18 14:14:14;;;;;;;21.40;15.90;;;;;;;;;;4931330;29;20110;-69
2021/04/18 14:16:40;;;;;;;25.02;17.85;;;;;;;;;;4912377;29;20128;-69
2021/04/18 14:19:07;;;;;;;23.63;18.55;;;;;;;;;;4931559;29;20118;-65
2021/04/18 14:21:33;;;;;;;20.50;16.75;;;;;;;;;;4927973;29;20024;-64
2021/04/18 14:23:59;;;;;;;21.70;16.65;;;;;;;;;;4930041;29;20031;-66
2021/04/18 14:26:25;;;;;;;20.20;16.20;;;;;;;;;;4912344;29;20063;-69
2021/04/18 14:28:51;;;;;;;21.52;15.43;;;;;;;;;;4925603;29;20067;-63
2021/04/18 14:31:17;;;;;;;23.83;17.35;;;;;;;;;;4928416;29;20031;-69
2021/04/18 14:33:43;;;;;;;23.92;17.33;;;;;;;;;;4906393;29;20087;-66
2021/04/18 14:36:09;;;;;;;21.98;16.17;;;;;;;;;;4929910;29;20555;-67
2021/04/18 14:38:36;;;;;;;22.83;16.25;;;;;;;;;;4933409;29;20038;-67
2021/04/18 14:41:02;;;;;;;21.50;16.70;;;;;;;;;;4935660;29;20455;-69
2021/04/18 14:43:30;;;;;;;20.27;16.08;;;;;;;;;;4934824;29;20059;-65
2021/04/18 14:45:56;;;;;;;21.55;16.02;;;;;;;;;;4934794;29;20028;-64
2021/04/18 14:48:22;;;;;;;21.90;16.15;;;;;;;;;;4935038;29;20038;-66
2021/04/18 14:50:49;;;;;;;19.75;16.08;;;;;;;;;;4930293;29;20090;-66
2021/04/18 14:53:15;;;;;;;22.10;16.17;;;;;;;;;;4934622;29;20046;-66
2021/04/18 14:55:41;;;;;;;23.15;17.50;;;;;;;;;;4934221;29;20016;-66
2021/04/18 14:58:07;;;;;;;21.25;16.92;;;;;;;;;;4934881;29;20055;-65
2021/04/18 15:00:33;;;;;;;22.00;17.20;;;;;;;;;;4934473;29;20555;-66
2021/04/18 15:03:00;;;;;;;21.73;15.43;;;;;;;;;;4935667;29;20545;-67
2021/04/18 15:05:26;;;;;;;19.88;15.57;;;;;;;;;;4934796;29;20024;-65
2021/04/18 15:07:54;;;;;;;18.63;15.30;;;;;;;;;;4933316;29;20107;-65
2021/04/18 15:10:20;;;;;;;21.38;16.45;;;;;;;;;;4935237;29;20020;-65
2021/04/18 15:12:46;;;;;;;19.98;14.80;;;;;;;;;;4934915;29;20113;-68
2021/04/18 15:15:12;;;;;;;24.15;16.92;;;;;;;;;;4934628;29;20047;-64
2021/04/18 15:17:39;;;;;;;19.90;15.38;;;;;;;;;;4934654;29;20404;-66
2021/04/18 15:20:07;;;;;;;21.98;16.48;;;;;;;;;;4917166;29;20035;-64
2021/04/18 15:22:33;;;;;;;22.48;17.00;;;;;;;;;;4932788;29;20045;-67
2021/04/18 15:24:59;;;;;;;24.17;17.58;;;;;;;;;;4933218;29;20028;-67
2021/04/18 15:27:25;;;;;;;23.27;17.63;;;;;;;;;;4932499;29;20027;-65
2021/04/18 15:29:51;;;;;;;21.77;16.63;;;;;;;;;;4933759;29;20498;-64
2021/04/18 15:32:18;;;;;;;24.67;16.15;;;;;;;;;;4934201;29;20515;-63
2021/04/18 15:34:45;;;;;;;22.08;16.65;;;;;;;;;;4934741;29;20085;-64
2021/04/18 15:37:15;;;;;;;20.67;16.13;;;;;;;;;;4934632;29;20023;-64
2021/04/18 15:39:48;;;;;;;18.02;14.43;;;;;;;;;;4934567;29;20032;-64
2021/04/18 15:42:14;;;;;;;22.40;16.20;;;;;;;;;;4935004;29;20464;-65
2021/04/18 15:44:41;;;;;;;23.23;17.30;;;;;;;;;;4934719;29;20035;-65
2021/04/18 15:47:07;;;;;;;23.35;17.15;;;;;;;;;;4917450;29;20052;-64
2021/04/18 15:49:33;;;;;;;22.65;17.35;;;;;;;;;;4933994;29;20498;-63
2021/04/18 15:52:00;;;;;;;20.42;15.98;;;;;;;;;;4934495;29;20505;-64
2021/04/18 15:54:26;;;;;;;20.92;14.50;;;;;;;;;;4933664;29;20026;-68
2021/04/18 15:56:53;;;;;;;17.27;14.18;;;;;;;;;;4925077;29;20034;-68
2021/04/18 15:59:19;;;;;;;18.70;14.77;;;;;;;;;;4932093;29;20163;-67
2021/04/18 16:01:45;;;;;;;18.48;13.80;;;;;;;;;;4934886;29;20031;-68
2021/04/18 16:04:11;;;;;;;20.02;15.38;;;;;;;;;;4934356;29;20031;-73
2021/04/18 16:06:37;;;;;;;20.33;15.90;;;;;;;;;;4934295;29;20034;-71
2021/04/18 16:09:07;;;;;;;28.05;20.98;;;;;;;;;;4929053;29;20555;-70
2021/04/18 16:11:34;;;;;;;21.33;17.38;;;;;;;;;;4930405;29;20392;-65
2021/04/18 16:14:00;;;;;;;19.92;15.18;;;;;;;;;;4927640;29;20410;-64
2021/04/18 16:16:26;;;;;;;21.98;16.00;;;;;;;;;;4926749;29;20119;-69
2021/04/18 16:18:56;;;;;;;22.77;16.45;;;;;;;;;;4905727;29;20404;-69
2021/04/18 16:21:26;;;;;;;24.02;16.45;;;;;;;;;;4923390;29;20030;-66
2021/04/18 16:23:53;;;;;;;25.15;16.92;;;;;;;;;;4914601;29;20049;-82
2021/04/18 16:26:19;;;;;;;23.20;16.73;;;;;;;;;;4934596;29;20028;-68
2021/04/18 16:28:45;;;;;;;18.02;14.50;;;;;;;;;;4933988;29;20046;-77
2021/04/18 16:31:11;;;;;;;20.92;16.05;;;;;;;;;;4926892;29;20056;-70
2021/04/18 16:33:39;;;;;;;21.52;15.90;;;;;;;;;;4917848;29;20147;-78
2021/04/18 16:36:05;;;;;;;20.30;14.68;;;;;;;;;;4933164;29;20019;-80
2021/04/18 16:38:31;;;;;;;18.33;14.40;;;;;;;;;;4932906;29;20130;-71
2021/04/18 16:40:58;;;;;;;20.73;14.73;;;;;;;;;;4925280;29;20118;-69
2021/04/18 16:43:24;;;;;;;24.52;16.30;;;;;;;;;;4909674;29;20084;-74
2021/04/18 16:45:53;;;;;;;21.27;15.27;;;;;;;;;;4932133;29;20059;-73
2021/04/18 16:48:19;;;;;;;18.92;13.13;;;;;;;;;;4923681;29;20443;-72
2021/04/18 16:50:46;;;;;;;19.88;13.65;;;;;;;;;;4926226;29;20131;-70
2021/04/18 16:53:12;;;;;;;19.65;14.45;;;;;;;;;;4927012;29;20059;-73
2021/04/18 16:55:38;;;;;;;21.52;14.63;;;;;;;;;;4915572;29;20032;-73
2021/04/18 16:58:04;;;;;;;25.60;19.10;;;;;;;;;;4914376;29;20056;-71
2021/04/18 17:00:30;;;;;;;21.05;14.90;;;;;;;;;;4914808;29;20051;-70
2021/04/18 17:02:56;;;;;;;20.17;14.57;;;;;;;;;;4917382;29;20067;-72
2021/04/18 17:05:23;;;;;;;28.30;15.65;;;;;;;;;;4921054;29;20028;-77
2021/04/18 17:07:49;;;;;;;21.48;15.02;;;;;;;;;;4915942;29;20476;-71
2021/04/18 17:10:15;;;;;;;21.98;15.95;;;;;;;;;;4914001;29;20031;-70
2021/04/18 17:12:42;;;;;;;22.73;16.73;;;;;;;;;;4913792;29;20083;-70
2021/04/18 17:15:09;;;;;;;28.13;16.92;;;;;;;;;;4912083;29;20115;-68
2021/04/18 17:17:36;;;;;;;25.00;17.10;;;;;;;;;;4916022;29;20518;-73
2021/04/18 17:20:04;;;;;;;36.88;17.23;;;;;;;;;;4916654;29;20047;-73
2021/04/18 17:22:30;;;;;;;29.05;17.58;;;;;;;;;;4913826;29;20047;-73
2021/04/18 17:24:56;;;;;;;34.03;19.88;;;;;;;;;;4916818;29;20115;-71
2021/04/18 17:27:22;;;;;;;30.33;19.23;;;;;;;;;;4917139;29;20547;-67
2021/04/18 17:29:48;;;;;;;34.40;18.48;;;;;;;;;;4913978;29;20034;-66
2021/04/18 17:32:20;;;;;;;36.20;23.02;;;;;;;;;;4915042;29;20032;-66
2021/04/18 17:34:46;;;;;;;33.53;21.88;;;;;;;;;;4914512;29;20016;-75
2021/04/18 17:37:12;;;;;;;26.50;19.95;;;;;;;;;;4917544;29;20035;-67
2021/04/18 17:39:38;;;;;;;28.25;19.63;;;;;;;;;;4897085;29;20024;-72
2021/04/18 17:42:05;;;;;;;35.17;21.50;;;;;;;;;;4897344;29;20059;-78
2021/04/18 17:44:31;;;;;;;28.67;20.13;;;;;;;;;;4914340;29;20060;-72
2021/04/18 17:46:57;;;;;;;36.08;22.15;;;;;;;;;;4897253;29;20036;-67
2021/04/18 17:49:23;;;;;;;36.13;23.67;;;;;;;;;;4914174;29;20024;-74
2021/04/18 17:51:49;;;;;;;36.60;23.40;;;;;;;;;;4914164;29;20417;-71
2021/04/18 17:54:15;;;;;;;46.58;23.83;;;;;;;;;;4920326;29;20020;-74
2021/04/18 17:56:42;;;;;;;44.75;26.83;;;;;;;;;;4933298;29;20024;-70
2021/04/18 17:59:08;;;;;;;42.03;26.23;;;;;;;;;;4932852;29;20039;-70
2021/04/18 18:01:36;;;;;;;42.47;26.50;;;;;;;;;;4918779;29;20031;-72
2021/04/18 18:04:02;;;;;;;45.30;27.40;;;;;;;;;;4914572;29;20488;-76
2021/04/18 18:06:28;;;;;;;55.38;28.48;;;;;;;;;;4909747;29;20027;-74
2021/04/18 18:08:54;;;;;;;60.53;35.92;;;;;;;;;;4927731;29;20032;-73
2021/04/18 18:11:21;;;;;;;57.63;36.92;;;;;;;;;;4927806;29;20035;-73
2021/04/18 18:13:47;;;;;;;58.38;34.53;;;;;;;;;;4932555;29;20032;-75
2021/04/18 18:16:13;;;;;;;58.95;35.92;;;;;;;;;;4932832;29;20071;-70
2021/04/18 18:18:39;;;;;;;55.25;35.42;;;;;;;;;;4930361;29;20027;-69
2021/04/18 18:21:09;;;;;;;56.10;33.63;;;;;;;;;;4930964;29;20486;-72
2021/04/18 18:23:35;;;;;;;62.78;35.40;;;;;;;;;;4933429;29;20181;-71
2021/04/18 18:26:01;;;;;;;64.18;37.25;;;;;;;;;;4932761;29;20502;-72
2021/04/18 18:28:28;;;;;;;65.47;40.40;;;;;;;;;;4932358;29;20134;-69
2021/04/18 18:30:54;;;;;;;57.75;36.85;;;;;;;;;;4932292;29;20024;-74
2021/04/18 18:33:20;;;;;;;58.78;38.10;;;;;;;;;;4932412;29;20039;-69
2021/04/18 18:35:47;;;;;;;67.40;40.95;;;;;;;;;;4932756;29;20054;-73
2021/04/18 18:38:13;;;;;;;61.22;36.63;;;;;;;;;;4906976;29;20040;-71
2021/04/18 18:40:40;;;;;;;48.95;32.35;;;;;;;;;;4931090;29;20490;-69
2021/04/18 18:43:06;;;;;;;62.53;37.75;;;;;;;;;;4932327;29;20032;-77
2021/04/18 18:45:32;;;;;;;57.28;36.85;;;;;;;;;;4931372;29;20110;-78
2021/04/18 18:48:00;;;;;;;67.68;40.78;;;;;;;;;;4932299;29;20040;-73
2021/04/18 18:50:26;;;;;;;78.00;46.47;;;;;;;;;;4932409;29;20087;-78
2021/04/18 18:52:58;;;;;;;79.13;47.10;;;;;;;;;;4931771;29;20535;-72
2021/04/18 18:55:25;;;;;;;82.67;48.37;;;;;;;;;;4932627;29;20024;-74
2021/04/18 18:57:54;;;;;;;76.97;47.58;;;;;;;;;;4931884;29;20031;-75
2021/04/18 19:00:21;;;;;;;74.70;45.05;;;;;;;;;;4931033;29;20039;-68
2021/04/18 19:02:47;;;;;;;69.97;41.97;;;;;;;;;;4925427;29;20028;-70
2021/04/18 19:05:14;;;;;;;67.03;42.92;;;;;;;;;;4911360;29;20020;-71
2021/04/18 19:07:41;;;;;;;83.80;47.42;;;;;;;;;;4912274;29;20028;-73
2021/04/18 19:10:07;;;;;;;73.22;46.00;;;;;;;;;;4912901;29;20024;-73
2021/04/18 19:12:33;;;;;;;73.03;45.67;;;;;;;;;;4913110;29;20040;-72
2021/04/18 19:14:59;;;;;;;68.50;42.85;;;;;;;;;;4912080;29;20074;-73
2021/04/18 19:17:26;;;;;;;77.78;46.38;;;;;;;;;;4913095;29;20575;-67
2021/04/18 19:19:52;;;;;;;83.32;48.80;;;;;;;;;;4912871;29;20551;-85
2021/04/18 19:22:18;;;;;;;82.45;48.30;;;;;;;;;;4914230;29;20028;-76
2021/04/18 19:24:44;;;;;;;88.57;50.67;;;;;;;;;;4924858;29;20443;-76
2021/04/18 19:27:10;;;;;;;80.57;47.35;;;;;;;;;;4932150;29;20032;-69
2021/04/18 19:29:36;;;;;;;86.82;48.75;;;;;;;;;;4933991;29;20095;-81
2021/04/18 19:32:03;;;;;;;85.75;49.42;;;;;;;;;;4934565;29;20558;-69
2021/04/18 19:34:29;;;;;;;68.75;43.38;;;;;;;;;;4934734;29;20051;-80
2021/04/18 19:36:55;;;;;;;69.07;41.03;;;;;;;;;;4935421;29;20090;-79
2021/04/18 19:39:22;;;;;;;74.07;44.72;;;;;;;;;;4935958;29;20090;-71
2021/04/18 19:41:48;;;;;;;88.38;50.58;;;;;;;;;;4924006;29;20023;-77
2021/04/18 19:44:15;;;;;;;87.88;49.80;;;;;;;;;;4916802;29;20055;-78
2021/04/18 19:46:42;;;;;;;92.95;53.72;;;;;;;;;;4916398;29;20140;-82
2021/04/18 19:49:08;;;;;;;96.82;52.83;;;;;;;;;;4917342;29;20028;-73
2021/04/18 19:51:34;;;;;;;87.35;50.05;;;;;;;;;;4917043;29;20032;-79
2021/04/18 19:54:00;;;;;;;86.88;51.00;;;;;;;;;;4916069;29;20044;-72
2021/04/18 19:56:26;;;;;;;90.68;52.58;;;;;;;;;;4920527;29;20114;-82
2021/04/18 19:58:52;;;;;;;86.50;48.55;;;;;;;;;;4916338;29;20034;-75
2021/04/18 20:01:21;;;;;;;81.32;46.03;;;;;;;;;;4917278;29;20040;-68